Time;durP1;ratioP1;P1;durP2;ratioP2;P2;SDS_P1;SDS_P2;PMS_P1;PMS_P2;Temp;Humidity;BMP_temperature;BMP_pressure;BME280_temperature;BME280_humidity;BME280_pressure;Samples;Min_cycle;Max_cycle;Signal;HPM_P1;HPM_P2
2022/10/01 00:01:59;;;;;;;6.00;5.40;;;9.80;99.90;;;;;;5030994;28;20209;-84
2022/10/01 00:04:27;;;;;;;6.78;6.18;;;9.70;99.90;;;;;;5027852;28;20877;-84
2022/10/01 00:06:53;;;;;;;6.30;5.70;;;9.70;99.90;;;;;;5021720;28;20233;-84
2022/10/01 00:09:19;;;;;;;6.60;5.83;;;9.40;99.90;;;;;;5021741;28;20277;-84
2022/10/01 00:11:44;;;;;;;7.30;6.20;;;9.70;99.90;;;;;;5024613;28;20214;-84
2022/10/01 00:14:10;;;;;;;6.40;5.80;;;9.70;99.90;;;;;;5027967;28;20441;-84
2022/10/01 00:16:35;;;;;;;7.33;5.90;;;9.60;99.90;;;;;;5026714;28;20230;-85
2022/10/01 00:19:01;;;;;;;7.27;6.00;;;9.90;99.90;;;;;;5042886;28;20178;-85
2022/10/01 00:21:30;;;;;;;5.67;5.20;;;10.10;99.90;;;;;;5029918;28;20206;-84
2022/10/01 00:23:57;;;;;;;6.05;5.20;;;10.30;99.90;;;;;;5025850;28;21158;-85
2022/10/01 00:26:26;;;;;;;6.10;5.50;;;10.20;99.90;;;;;;5030925;28;20183;-84
2022/10/01 00:28:57;;;;;;;6.47;5.88;;;10.00;99.90;;;;;;5029206;28;20190;-84
2022/10/01 00:31:23;;;;;;;5.85;5.35;;;9.60;99.90;;;;;;5030113;28;20260;-84
2022/10/01 00:33:51;;;;;;;5.80;5.22;;;10.20;99.90;;;;;;5031184;28;20190;-84
2022/10/01 00:36:17;;;;;;;6.18;5.35;;;9.50;99.90;;;;;;5019385;28;20216;-84
2022/10/01 00:38:45;;;;;;;5.60;5.10;;;10.20;99.90;;;;;;5034337;28;20683;-84
2022/10/01 00:41:10;;;;;;;5.45;4.95;;;9.80;99.90;;;;;;5019191;28;20252;-84
2022/10/01 00:43:42;;;;;;;6.33;5.73;;;9.70;99.90;;;;;;5028844;28;20191;-83
2022/10/01 00:46:23;;;;;;;6.13;5.20;;;10.10;99.90;;;;;;5033107;28;20182;-84
2022/10/01 00:49:19;;;;;;;7.05;5.70;;;9.80;99.90;;;;;;5023271;28;20190;-84
2022/10/01 00:51:48;;;;;;;6.75;5.90;;;9.60;99.90;;;;;;5023104;28;20233;-84
2022/10/01 00:54:30;;;;;;;5.28;4.88;;;9.90;99.90;;;;;;5031901;28;20185;-84
2022/10/01 00:56:58;;;;;;;6.68;6.07;;;9.30;99.90;;;;;;5026421;28;20211;-84
2022/10/01 00:59:24;;;;;;;5.70;5.20;;;9.90;99.90;;;;;;5021121;28;20201;-83
2022/10/01 01:01:50;;;;;;;5.57;5.07;;;10.20;99.90;;;;;;5030820;28;20218;-84
2022/10/01 01:04:15;;;;;;;6.03;5.40;;;10.20;99.90;;;;;;5033449;28;20190;-85
2022/10/01 01:06:42;;;;;;;5.20;4.70;;;9.60;99.90;;;;;;5021250;28;20191;-83
2022/10/01 01:09:08;;;;;;;6.00;5.18;;;9.60;99.90;;;;;;5019131;28;20275;-84
2022/10/01 01:12:00;;;;;;;5.87;5.00;;;9.80;99.90;;;;;;5027571;28;20329;-85
2022/10/01 01:14:54;;;;;;;5.85;5.35;;;9.80;99.90;;;;;;5036560;28;20213;-85
2022/10/01 01:17:42;;;;;;;5.75;5.25;;;9.80;99.90;;;;;;5022533;28;20231;-85
2022/10/01 01:20:41;;;;;;;6.00;5.50;;;9.70;99.90;;;;;;5031689;28;20175;-83
2022/10/01 01:23:15;;;;;;;5.85;5.35;;;9.70;99.90;;;;;;5017465;28;20171;-83
2022/10/01 01:25:51;;;;;;;6.50;5.53;;;10.20;99.90;;;;;;5034184;28;20683;-83
2022/10/01 01:28:31;;;;;;;5.88;5.38;;;9.80;99.90;;;;;;5024953;28;20265;-83
2022/10/01 01:31:01;;;;;;;5.32;4.82;;;10.00;99.90;;;;;;5034503;28;20284;-83
2022/10/01 01:33:31;;;;;;;5.70;5.30;;;10.10;99.90;;;;;;5024949;28;20180;-83
2022/10/01 01:36:08;;;;;;;6.47;4.78;;;9.80;99.90;;;;;;5026858;28;20209;-82
2022/10/01 01:38:41;;;;;;;5.35;4.85;;;10.40;99.90;;;;;;5031014;28;20189;-83
2022/10/01 01:41:09;;;;;;;5.30;4.80;;;10.20;99.90;;;;;;5017431;28;20230;-83
2022/10/01 01:43:39;;;;;;;5.70;5.20;;;10.20;99.90;;;;;;5031958;28;20187;-83
2022/10/01 01:46:07;;;;;;;5.10;4.70;;;9.80;99.90;;;;;;5020600;28;20558;-83
2022/10/01 01:48:36;;;;;;;6.20;5.00;;;10.50;99.90;;;;;;5038596;28;20190;-83
2022/10/01 01:51:16;;;;;;;5.32;4.82;;;10.80;99.90;;;;;;5020500;28;20209;-83
2022/10/01 01:53:42;;;;;;;5.22;4.82;;;10.70;99.90;;;;;;5046140;28;20674;-84
2022/10/01 01:56:08;;;;;;;5.47;4.97;;;10.60;99.90;;;;;;5038439;28;20284;-83
2022/10/01 01:58:36;;;;;;;5.53;4.97;;;10.30;99.90;;;;;;5032278;28;20632;-83
2022/10/01 02:01:03;;;;;;;7.13;5.55;;;10.50;99.90;;;;;;5015713;28;20213;-82
2022/10/01 02:03:32;;;;;;;5.20;4.55;;;10.40;99.90;;;;;;5034827;28;20187;-83
2022/10/01 02:06:10;;;;;;;5.07;4.50;;;10.20;99.90;;;;;;5039654;28;20187;-83
2022/10/01 02:08:48;;;;;;;5.15;4.65;;;10.10;99.90;;;;;;5018800;28;20187;-83
2022/10/01 02:11:27;;;;;;;4.45;4.03;;;10.10;99.90;;;;;;5030977;28;20239;-83
2022/10/01 02:14:27;;;;;;;5.38;4.97;;;10.10;99.90;;;;;;5033250;28;20284;-82
2022/10/01 02:17:00;;;;;;;4.88;4.43;;;10.20;99.90;;;;;;5033289;28;20206;-83
2022/10/01 02:19:46;;;;;;;4.80;4.40;;;10.20;99.90;;;;;;5022766;28;20197;-83
2022/10/01 02:22:17;;;;;;;5.10;4.60;;;10.40;99.90;;;;;;5028436;28;20288;-83
2022/10/01 02:24:57;;;;;;;4.88;4.45;;;9.90;99.90;;;;;;5028978;28;20242;-83
2022/10/01 02:27:22;;;;;;;5.13;4.63;;;10.30;99.90;;;;;;5024381;28;20298;-83
2022/10/01 02:29:49;;;;;;;4.60;4.20;;;10.30;99.90;;;;;;5035667;28;20283;-81
2022/10/01 02:32:17;;;;;;;4.88;4.47;;;10.50;99.90;;;;;;5012241;28;20211;-82
2022/10/01 02:34:46;;;;;;;4.43;4.03;;;10.80;99.90;;;;;;5025743;28;20190;-83
2022/10/01 02:37:12;;;;;;;4.53;4.13;;;10.50;99.90;;;;;;5040148;28;20298;-82
2022/10/01 02:39:42;;;;;;;4.93;4.53;;;11.00;99.90;;;;;;5021046;28;20282;-83
2022/10/01 02:42:11;;;;;;;5.40;4.20;;;11.00;99.90;;;;;;5031920;28;20464;-82
2022/10/01 02:44:42;;;;;;;4.20;3.90;;;11.10;99.90;;;;;;5030074;28;20191;-82
2022/10/01 02:47:17;;;;;;;4.18;3.88;;;10.70;99.90;;;;;;5032547;28;20217;-83
2022/10/01 02:49:43;;;;;;;4.05;3.75;;;10.60;99.90;;;;;;5032767;28;20328;-82
2022/10/01 02:52:12;;;;;;;4.00;3.60;;;11.30;99.90;;;;;;5028092;28;20282;-83
2022/10/01 02:54:45;;;;;;;4.03;3.72;;;10.80;99.90;;;;;;5028408;28;20576;-82
2022/10/01 02:57:23;;;;;;;5.28;4.88;;;11.50;99.90;;;;;;5024514;28;20210;-83
2022/10/01 02:59:50;;;;;;;3.50;3.20;;;11.40;99.90;;;;;;5047569;28;20195;-82
2022/10/01 03:02:16;;;;;;;4.43;3.90;;;11.00;99.90;;;;;;5058012;28;20191;-83
2022/10/01 03:04:42;;;;;;;3.95;3.65;;;11.20;99.90;;;;;;5023841;28;20193;-83
2022/10/01 03:07:08;;;;;;;4.00;3.70;;;11.00;99.90;;;;;;5026840;28;20274;-83
2022/10/01 03:09:35;;;;;;;4.07;3.67;;;11.30;99.90;;;;;;5021321;28;20184;-82
2022/10/01 03:12:01;;;;;;;4.05;3.38;;;10.80;99.90;;;;;;5026751;28;20215;-82
2022/10/01 03:14:27;;;;;;;4.50;4.00;;;10.80;99.90;;;;;;5016890;28;20184;-83
2022/10/01 03:16:53;;;;;;;3.88;3.55;;;10.90;99.90;;;;;;5024025;28;20204;-82
2022/10/01 03:19:18;;;;;;;4.13;3.53;;;11.00;99.90;;;;;;5032399;28;20173;-84
2022/10/01 03:21:44;;;;;;;3.30;2.97;;;11.40;99.90;;;;;;5037799;28;20259;-83
2022/10/01 03:24:10;;;;;;;3.93;3.30;;;11.10;99.90;;;;;;5024638;28;20233;-83
2022/10/01 03:26:35;;;;;;;3.60;3.30;;;11.70;99.90;;;;;;5037311;28;20441;-83
2022/10/01 03:29:02;;;;;;;4.17;3.87;;;10.60;99.90;;;;;;5045111;28;20185;-83
2022/10/01 03:31:28;;;;;;;3.63;3.35;;;11.60;99.90;;;;;;5027171;28;20635;-83
2022/10/01 03:33:53;;;;;;;4.03;3.73;;;11.30;99.90;;;;;;5022752;28;20594;-83
2022/10/01 03:36:19;;;;;;;5.03;3.70;;;11.10;99.90;;;;;;5041298;28;20863;-83
2022/10/01 03:38:44;;;;;;;3.60;3.30;;;11.30;99.90;;;;;;5023306;28;20184;-84
2022/10/01 03:41:10;;;;;;;6.50;4.10;;;11.10;99.90;;;;;;5023086;28;20205;-83
2022/10/01 03:43:35;;;;;;;4.40;4.00;;;10.70;99.90;;;;;;5039600;28;20239;-82
2022/10/01 03:46:01;;;;;;;3.27;3.07;;;10.90;99.90;;;;;;5044283;28;20639;-82
2022/10/01 03:48:28;;;;;;;3.60;3.30;;;11.20;99.90;;;;;;5041011;28;20551;-83
2022/10/01 03:50:58;;;;;;;3.67;3.38;;;10.90;99.90;;;;;;5033634;28;20607;-83
2022/10/01 03:53:26;;;;;;;3.88;3.42;;;10.90;99.90;;;;;;5040506;28;20186;-83
2022/10/01 03:55:52;;;;;;;3.40;3.10;;;11.00;99.90;;;;;;5034268;28;20221;-83
2022/10/01 03:58:17;;;;;;;3.58;3.28;;;10.70;99.90;;;;;;5018832;28;20389;-83
2022/10/01 04:00:45;;;;;;;3.47;3.17;;;11.20;99.90;;;;;;5026562;28;20578;-84
2022/10/01 04:03:11;;;;;;;4.03;3.30;;;11.40;99.90;;;;;;5025983;28;20470;-84
2022/10/01 04:05:36;;;;;;;3.13;2.83;;;11.50;99.90;;;;;;5044850;28;20187;-84
2022/10/01 04:08:02;;;;;;;3.10;2.80;;;11.00;99.90;;;;;;5028457;28;20558;-83
2022/10/01 04:10:28;;;;;;;3.13;2.87;;;11.30;99.90;;;;;;5026801;28;20295;-84
2022/10/01 04:12:54;;;;;;;3.87;3.57;;;11.20;99.90;;;;;;5026521;28;20180;-83
2022/10/01 04:15:20;;;;;;;5.35;2.90;;;11.00;99.90;;;;;;5029299;28;20186;-83
2022/10/01 04:17:47;;;;;;;2.92;2.72;;;11.50;99.90;;;;;;5029833;28;20214;-83
2022/10/01 04:20:12;;;;;;;3.22;3.03;;;11.10;99.90;;;;;;5017900;28;20180;-84
2022/10/01 04:22:41;;;;;;;2.80;2.60;;;11.00;99.90;;;;;;5031925;28;20261;-83
2022/10/01 04:25:11;;;;;;;3.05;2.78;;;10.90;99.90;;;;;;5017478;28;20255;-84
2022/10/01 04:27:40;;;;;;;2.65;2.45;;;11.10;99.90;;;;;;5022853;28;20195;-83
2022/10/01 04:30:08;;;;;;;2.60;2.40;;;11.00;99.90;;;;;;5032013;28;20181;-84
2022/10/01 04:32:34;;;;;;;2.30;2.20;;;11.20;99.90;;;;;;5022949;28;20192;-83
2022/10/01 04:35:02;;;;;;;2.25;2.15;;;11.50;99.90;;;;;;5019945;28;20186;-83
2022/10/01 04:37:28;;;;;;;2.83;2.63;;;11.40;99.90;;;;;;5031555;28;20220;-84
2022/10/01 04:39:53;;;;;;;2.67;2.47;;;11.10;99.90;;;;;;5033361;28;20681;-83
2022/10/01 04:42:20;;;;;;;2.90;2.70;;;11.30;99.90;;;;;;5023489;28;20481;-84
2022/10/01 04:44:46;;;;;;;2.88;2.08;;;11.10;99.90;;;;;;5023526;28;20197;-84
2022/10/01 04:47:11;;;;;;;2.70;2.50;;;11.70;99.90;;;;;;5030813;28;20576;-84
2022/10/01 04:49:37;;;;;;;2.67;2.47;;;11.20;99.90;;;;;;5024503;28;20478;-84
2022/10/01 04:52:03;;;;;;;4.07;2.57;;;11.30;99.90;;;;;;5014738;28;20199;-84
2022/10/01 04:54:29;;;;;;;2.78;2.58;;;11.20;99.90;;;;;;5022499;28;20467;-83
2022/10/01 04:56:56;;;;;;;2.80;2.57;;;11.00;99.90;;;;;;5022536;28;20213;-83
2022/10/01 04:59:22;;;;;;;2.65;2.45;;;11.30;99.90;;;;;;5040548;28;20197;-83
2022/10/01 05:01:47;;;;;;;2.80;2.60;;;11.60;99.90;;;;;;5034818;28;20304;-83
2022/10/01 05:04:13;;;;;;;2.53;2.33;;;11.30;99.90;;;;;;5030779;28;20239;-86
2022/10/01 05:06:40;;;;;;;3.47;2.67;;;11.60;99.90;;;;;;5035154;28;20178;-83
2022/10/01 05:09:05;;;;;;;3.92;2.95;;;11.40;99.90;;;;;;5028257;28;20279;-83
2022/10/01 05:11:33;;;;;;;2.37;2.17;;;11.60;99.90;;;;;;5025425;28;20315;-83
2022/10/01 05:13:58;;;;;;;2.20;2.00;;;11.60;99.90;;;;;;5037743;28;20190;-84
2022/10/01 05:16:24;;;;;;;2.73;2.17;;;11.90;99.90;;;;;;5029481;28;20214;-83
2022/10/01 05:18:50;;;;;;;2.23;2.10;;;11.90;99.90;;;;;;5038073;28;20284;-83
2022/10/01 05:21:15;;;;;;;3.10;2.23;;;12.00;99.90;;;;;;5034605;28;20206;-83
2022/10/01 05:23:41;;;;;;;2.10;2.00;;;11.80;99.90;;;;;;5027806;28;20186;-83
2022/10/01 05:26:07;;;;;;;2.37;2.17;;;11.50;99.90;;;;;;5018797;28;20855;-84
2022/10/01 05:28:34;;;;;;;2.40;2.20;;;12.10;99.90;;;;;;5019245;28;20188;-86
2022/10/01 05:31:03;;;;;;;3.78;2.00;;;11.60;99.90;;;;;;5017442;28;20301;-83
2022/10/01 05:33:29;;;;;;;2.33;2.13;;;11.80;99.90;;;;;;5033158;28;20184;-84
2022/10/01 05:35:58;;;;;;;3.20;2.20;;;12.00;99.90;;;;;;5019219;28;20234;-83
2022/10/01 05:38:24;;;;;;;1.98;1.88;;;12.30;99.90;;;;;;5020688;28;20185;-84
2022/10/01 05:40:50;;;;;;;1.95;1.80;;;12.20;99.90;;;;;;5015339;28;20212;-84
2022/10/01 05:43:17;;;;;;;2.27;1.90;;;11.90;99.90;;;;;;5020065;28;20185;-86
2022/10/01 05:45:43;;;;;;;2.90;1.60;;;11.70;99.90;;;;;;5037834;28;20447;-86
2022/10/01 05:48:09;;;;;;;1.80;1.70;;;11.80;99.90;;;;;;5019321;28;20185;-86
2022/10/01 05:50:41;;;;;;;1.90;1.67;;;12.20;99.90;;;;;;5027155;28;20250;-86
2022/10/01 05:53:08;;;;;;;2.00;1.90;;;11.90;99.90;;;;;;5038631;28;20676;-86
2022/10/01 05:55:34;;;;;;;1.73;1.63;;;11.90;99.90;;;;;;5017553;28;20198;-83
2022/10/01 05:58:03;;;;;;;2.97;1.90;;;11.80;99.90;;;;;;5036181;28;20209;-94
2022/10/01 06:00:29;;;;;;;2.03;1.90;;;12.30;99.90;;;;;;5029740;28;20549;-90
2022/10/01 06:02:56;;;;;;;1.98;1.83;;;12.00;99.90;;;;;;5024125;28;20186;-85
2022/10/01 06:05:22;;;;;;;1.70;1.60;;;12.00;99.90;;;;;;5026184;28;20187;-84
2022/10/01 06:07:48;;;;;;;2.25;1.85;;;12.40;99.90;;;;;;5040347;28;20187;-92
2022/10/01 06:10:14;;;;;;;4.27;1.70;;;12.10;99.90;;;;;;5020555;28;20185;-89
2022/10/01 06:12:42;;;;;;;1.90;1.80;;;11.90;99.90;;;;;;5017893;28;20459;-85
2022/10/01 06:15:08;;;;;;;2.22;2.10;;;11.90;99.90;;;;;;5023458;28;20784;-84
2022/10/01 06:17:35;;;;;;;1.90;1.55;;;11.80;99.90;;;;;;5019285;28;20281;-85
2022/10/01 06:20:01;;;;;;;3.28;1.90;;;12.30;99.90;;;;;;5024336;28;20217;-93
2022/10/01 06:22:26;;;;;;;2.20;1.70;;;12.20;99.90;;;;;;5055534;22;20222;-63
2022/10/01 06:24:52;;;;;;;2.73;2.53;;;11.60;99.90;;;;;;5051834;28;20597;-66
2022/10/01 06:27:18;;;;;;;3.93;3.63;;;12.00;99.90;;;;;;5028165;28;20273;-63
2022/10/01 06:29:43;;;;;;;2.70;2.47;;;11.90;99.90;;;;;;5033628;28;20219;-70
2022/10/01 06:32:12;;;;;;;4.47;4.10;;;11.90;99.90;;;;;;5034225;28;20282;-72
2022/10/01 06:34:38;;;;;;;3.10;2.90;;;12.00;99.90;;;;;;5033303;28;20211;-72
2022/10/01 06:37:05;;;;;;;3.10;2.80;;;11.80;99.90;;;;;;5030389;28;20319;-73
2022/10/01 06:39:30;;;;;;;1.85;1.75;;;11.70;99.90;;;;;;5031224;28;20811;-74
2022/10/01 06:41:56;;;;;;;3.50;2.20;;;11.90;99.90;;;;;;5036024;28;20227;-74
2022/10/01 06:44:21;;;;;;;4.40;2.30;;;11.80;99.90;;;;;;5032659;28;20179;-74
2022/10/01 06:46:47;;;;;;;2.50;2.30;;;11.90;99.90;;;;;;5031085;28;20185;-74
2022/10/01 06:49:13;;;;;;;3.00;2.57;;;11.80;99.90;;;;;;5030596;28;20186;-73
2022/10/01 06:54:22;;;;;;;2.95;2.50;;;11.80;99.90;;;;;;5027770;28;20242;-73
2022/10/01 06:56:48;;;;;;;2.90;2.60;;;11.80;99.90;;;;;;5028954;28;20296;-70
2022/10/01 06:59:13;;;;;;;2.20;1.83;;;11.80;99.90;;;;;;5032432;28;20549;-72
2022/10/01 07:01:39;;;;;;;1.97;1.87;;;11.70;99.90;;;;;;5031780;28;20183;-71
2022/10/01 07:04:05;;;;;;;2.10;2.00;;;11.80;99.90;;;;;;5031448;28;20185;-73
2022/10/01 07:06:31;;;;;;;2.40;2.20;;;12.10;99.90;;;;;;5029667;28;20212;-72
2022/10/01 07:08:57;;;;;;;3.03;2.72;;;11.80;99.90;;;;;;5032297;28;20195;-72
2022/10/01 07:11:24;;;;;;;3.05;2.10;;;12.00;99.90;;;;;;5030836;28;20220;-71
2022/10/01 07:13:50;;;;;;;3.05;1.88;;;11.90;99.90;;;;;;5032405;28;20268;-73
2022/10/01 07:16:15;;;;;;;2.67;2.10;;;11.90;99.90;;;;;;5029725;28;20216;-73
2022/10/01 07:18:41;;;;;;;2.97;2.47;;;11.60;99.90;;;;;;5030309;28;20178;-72
2022/10/01 07:21:06;;;;;;;2.33;1.97;;;11.80;99.90;;;;;;5028787;28;20196;-71
2022/10/01 07:23:32;;;;;;;2.20;2.00;;;12.00;99.90;;;;;;5031961;28;20646;-72
2022/10/01 07:25:58;;;;;;;2.10;2.00;;;11.90;99.90;;;;;;5028479;28;20760;-71
2022/10/01 07:28:25;;;;;;;2.70;2.50;;;11.90;99.90;;;;;;5031510;28;20206;-72
2022/10/01 07:31:05;;;;;;;2.05;1.95;;;11.80;99.90;;;;;;5030370;28;20188;-73
2022/10/01 07:33:31;;;;;;;2.35;1.90;;;12.00;99.90;;;;;;5030388;28;20556;-73
2022/10/01 07:36:05;;;;;;;2.03;1.55;;;12.00;99.90;;;;;;5026346;28;20206;-72
2022/10/01 07:38:35;;;;;;;1.80;1.70;;;12.10;99.90;;;;;;5027529;28;20600;-71
2022/10/01 07:41:02;;;;;;;1.92;1.83;;;12.00;99.90;;;;;;5025255;28;20448;-70
2022/10/01 07:43:29;;;;;;;2.20;2.00;;;12.20;99.90;;;;;;5024978;28;20646;-71
2022/10/01 07:45:56;;;;;;;2.15;2.05;;;11.80;99.90;;;;;;5033631;28;20280;-70
2022/10/01 07:48:23;;;;;;;2.40;2.20;;;12.10;99.90;;;;;;5031753;28;20171;-67
2022/10/01 07:50:49;;;;;;;2.00;1.90;;;12.00;99.90;;;;;;5020862;28;20186;-68
2022/10/01 07:53:16;;;;;;;4.80;2.87;;;12.30;99.90;;;;;;5032151;28;20229;-71
2022/10/01 07:55:41;;;;;;;3.67;2.42;;;12.10;99.90;;;;;;5027151;28;20459;-71
2022/10/01 07:58:08;;;;;;;5.50;2.83;;;12.20;99.90;;;;;;5027323;28;20216;-68
2022/10/01 08:00:34;;;;;;;2.47;2.05;;;12.20;99.90;;;;;;5023596;28;20186;-68
2022/10/01 08:03:00;;;;;;;2.50;2.20;;;12.10;99.90;;;;;;5031652;28;20189;-68
2022/10/01 08:05:31;;;;;;;2.00;1.80;;;12.10;99.90;;;;;;5030203;28;20448;-70
2022/10/01 08:08:02;;;;;;;2.00;1.90;;;12.20;99.90;;;;;;5029341;28;20213;-72
2022/10/01 08:10:29;;;;;;;3.78;2.45;;;11.80;99.90;;;;;;5026027;28;20186;-67
2022/10/01 08:13:07;;;;;;;1.83;1.73;;;12.00;99.90;;;;;;5028829;28;20986;-64
2022/10/01 08:15:34;;;;;;;2.60;2.20;;;12.00;99.90;;;;;;5033505;28;20287;-66
2022/10/01 08:18:01;;;;;;;2.13;1.92;;;11.90;99.90;;;;;;5027486;28;20220;-66
2022/10/01 08:20:27;;;;;;;2.13;1.92;;;11.90;99.90;;;;;;5019158;28;20191;-67
2022/10/01 08:22:53;;;;;;;2.47;2.23;;;12.00;99.90;;;;;;5018953;28;20618;-63
2022/10/01 08:25:19;;;;;;;1.90;1.77;;;12.00;99.90;;;;;;5031176;28;20584;-66
2022/10/01 08:27:44;;;;;;;2.00;1.90;;;12.20;99.90;;;;;;5026494;28;20597;-66
2022/10/01 08:30:16;;;;;;;3.13;2.30;;;12.10;99.90;;;;;;5026845;28;21233;-66
2022/10/01 08:32:43;;;;;;;2.03;1.92;;;12.10;99.90;;;;;;5029398;28;20194;-67
2022/10/01 08:35:08;;;;;;;3.87;1.90;;;12.00;99.90;;;;;;5035848;28;20579;-66
2022/10/01 08:37:37;;;;;;;2.20;2.00;;;12.10;99.90;;;;;;5024333;28;20535;-67
2022/10/01 08:40:06;;;;;;;2.38;2.10;;;12.10;99.90;;;;;;5022908;28;20182;-69
2022/10/01 08:42:38;;;;;;;1.88;1.75;;;12.20;99.90;;;;;;5024391;28;20596;-66
2022/10/01 08:45:13;;;;;;;2.10;1.90;;;12.10;99.90;;;;;;5025571;28;20571;-67
2022/10/01 08:47:48;;;;;;;2.70;2.10;;;11.90;99.90;;;;;;5025034;28;20190;-64
2022/10/01 08:50:18;;;;;;;2.10;2.00;;;12.10;99.90;;;;;;5027779;28;20200;-66
2022/10/01 08:53:00;;;;;;;2.42;2.25;;;12.20;99.90;;;;;;5019098;28;20201;-70
2022/10/01 08:55:30;;;;;;;2.55;2.35;;;12.10;99.90;;;;;;5025234;28;20288;-65
2022/10/01 08:58:00;;;;;;;2.88;2.05;;;12.20;99.90;;;;;;5022891;28;20217;-66
2022/10/01 09:00:27;;;;;;;2.20;2.00;;;12.00;99.90;;;;;;5026873;28;20646;-66
2022/10/01 09:02:57;;;;;;;1.85;1.75;;;12.50;99.90;;;;;;5025234;28;20201;-66
2022/10/01 09:05:47;;;;;;;2.53;2.00;;;12.30;99.90;;;;;;5027249;28;20204;-66
2022/10/01 09:08:44;;;;;;;2.28;2.17;;;12.40;99.90;;;;;;5025582;28;20194;-80
2022/10/01 09:11:22;;;;;;;2.20;2.00;;;12.40;99.90;;;;;;5027392;28;20185;-76
2022/10/01 09:14:12;;;;;;;1.85;1.73;;;12.40;99.90;;;;;;5029636;28;20211;-79
2022/10/01 09:17:04;;;;;;;2.10;2.00;;;12.30;99.90;;;;;;5023980;28;20416;-78
2022/10/01 09:19:42;;;;;;;2.65;2.45;;;12.60;99.90;;;;;;5026216;28;20209;-68
2022/10/01 09:22:38;;;;;;;2.50;2.30;;;12.90;99.90;;;;;;5024169;28;20196;-68
2022/10/01 09:25:18;;;;;;;2.08;1.88;;;12.70;99.90;;;;;;5023438;28;20337;-70
2022/10/01 09:27:45;;;;;;;2.30;2.10;;;12.70;99.90;;;;;;5023693;28;20215;-67
2022/10/01 09:30:11;;;;;;;1.98;1.88;;;13.00;99.90;;;;;;5028546;28;20240;-72
2022/10/01 09:32:50;;;;;;;1.60;1.50;;;12.90;99.90;;;;;;5038712;28;20186;-77
2022/10/01 09:35:48;;;;;;;1.50;1.40;;;12.70;99.90;;;;;;5021852;28;20289;-68
2022/10/01 09:38:17;;;;;;;1.80;1.70;;;12.80;99.90;;;;;;5046330;28;20198;-69
2022/10/01 09:41:10;;;;;;;1.98;1.60;;;12.80;99.90;;;;;;5024913;28;21300;-68
2022/10/01 09:43:38;;;;;;;3.17;1.77;;;12.80;99.90;;;;;;5025510;28;20197;-68
2022/10/01 09:46:11;;;;;;;2.38;1.75;;;12.70;99.90;;;;;;5022431;28;20256;-68
2022/10/01 09:48:49;;;;;;;1.58;1.48;;;12.60;99.90;;;;;;5024151;28;20217;-66
2022/10/01 09:51:30;;;;;;;1.20;1.10;;;13.00;99.90;;;;;;5022999;28;20194;-66
2022/10/01 09:54:06;;;;;;;2.45;1.30;;;13.20;99.90;;;;;;5025450;28;20186;-66
2022/10/01 09:56:51;;;;;;;2.30;1.50;;;13.10;99.90;;;;;;5024476;28;20231;-66
2022/10/01 09:59:27;;;;;;;1.30;1.20;;;13.10;99.90;;;;;;5023476;28;20178;-66
2022/10/01 10:01:59;;;;;;;2.35;1.30;;;12.70;99.90;;;;;;5027489;28;20680;-67
2022/10/01 10:04:26;;;;;;;1.60;1.33;;;12.90;99.90;;;;;;5029687;28;20667;-67
2022/10/01 10:07:00;;;;;;;1.42;1.25;;;13.10;99.90;;;;;;5025450;28;20182;-67
2022/10/01 10:09:34;;;;;;;4.35;2.83;;;12.90;99.90;;;;;;5040149;28;20189;-67
2022/10/01 10:12:01;;;;;;;1.25;1.10;;;13.20;99.90;;;;;;5021865;28;20186;-66
2022/10/01 10:14:36;;;;;;;1.23;0.93;;;13.40;99.90;;;;;;5016555;28;20190;-66
2022/10/01 10:17:11;;;;;;;1.80;1.08;;;13.00;99.90;;;;;;5027910;28;20205;-67
2022/10/01 10:19:38;;;;;;;1.73;1.23;;;13.10;99.90;;;;;;5034593;28;20170;-66
2022/10/01 10:22:22;;;;;;;1.30;1.20;;;13.40;99.90;;;;;;5035595;28;20570;-67
2022/10/01 10:24:48;;;;;;;1.10;1.00;;;13.40;99.90;;;;;;5039713;28;20206;-66
2022/10/01 10:27:25;;;;;;;1.05;0.90;;;13.20;99.90;;;;;;5038973;28;20186;-66
2022/10/01 10:30:04;;;;;;;1.33;1.23;;;13.40;99.90;;;;;;5046857;28;20209;-69
2022/10/01 10:32:30;;;;;;;1.45;1.35;;;13.40;99.90;;;;;;5034284;28;20178;-67
2022/10/01 10:35:02;;;;;;;1.47;1.23;;;13.20;99.90;;;;;;5028261;28;20205;-67
2022/10/01 10:37:33;;;;;;;1.13;1.02;;;13.20;99.90;;;;;;5030907;28;20487;-66
2022/10/01 10:39:58;;;;;;;2.17;1.17;;;13.50;99.90;;;;;;5027700;28;20254;-66
2022/10/01 10:42:24;;;;;;;1.50;1.20;;;13.30;99.90;;;;;;5029743;28;20273;-67
2022/10/01 10:45:02;;;;;;;0.80;0.80;;;13.20;99.90;;;;;;5039754;28;20237;-67
2022/10/01 10:47:30;;;;;;;1.30;0.93;;;13.20;99.90;;;;;;5031300;28;20516;-67
2022/10/01 10:50:04;;;;;;;1.20;1.10;;;13.60;99.90;;;;;;5038051;28;20277;-68
2022/10/01 10:52:35;;;;;;;1.30;1.00;;;13.60;99.90;;;;;;5035439;28;20213;-67
2022/10/01 10:55:20;;;;;;;1.23;0.93;;;13.40;99.90;;;;;;5030479;28;20288;-66
2022/10/01 10:57:45;;;;;;;0.90;0.90;;;13.70;99.90;;;;;;5029525;28;20265;-66
2022/10/01 11:00:24;;;;;;;1.13;1.03;;;13.80;99.90;;;;;;5037676;28;20177;-67
2022/10/01 11:03:00;;;;;;;1.60;0.90;;;13.90;99.90;;;;;;5042856;28;20184;-67
2022/10/01 11:05:30;;;;;;;0.75;0.70;;;13.90;99.90;;;;;;5034673;28;20198;-67
2022/10/01 11:08:09;;;;;;;0.85;0.85;;;13.90;99.90;;;;;;5042607;28;20277;-67
2022/10/01 11:10:43;;;;;;;0.77;0.77;;;14.00;99.90;;;;;;5034490;28;20186;-67
2022/10/01 11:13:41;;;;;;;1.00;0.90;;;14.10;99.90;;;;;;5027739;28;20299;-67
2022/10/01 11:16:35;;;;;;;0.90;0.80;;;14.50;99.90;;;;;;5032320;28;20198;-67
2022/10/01 11:19:07;;;;;;;1.15;0.60;;;14.30;99.90;;;;;;5037014;28;20189;-67
2022/10/01 11:22:05;;;;;;;1.70;0.80;;;14.40;99.90;;;;;;5026596;28;20194;-68
2022/10/01 11:24:59;;;;;;;1.35;1.00;;;14.40;99.90;;;;;;5024172;28;20190;-68
2022/10/01 11:27:56;;;;;;;1.05;0.95;;;14.60;99.90;;;;;;5029574;28;20189;-68
2022/10/01 11:30:25;;;;;;;0.80;0.70;;;14.40;99.90;;;;;;5033260;28;20258;-68
2022/10/01 11:33:02;;;;;;;0.80;0.68;;;14.40;99.90;;;;;;5029312;28;20221;-68
2022/10/01 11:35:56;;;;;;;2.45;0.90;;;14.40;99.90;;;;;;5033294;28;20296;-68
2022/10/01 11:38:46;;;;;;;0.98;0.88;;;14.40;99.90;;;;;;5026962;28;20188;-68
2022/10/01 11:41:17;;;;;;;1.27;0.90;;;14.10;99.90;;;;;;5028239;28;20181;-69
2022/10/01 11:44:05;;;;;;;0.70;0.70;;;14.40;99.90;;;;;;5034810;28;20182;-68
2022/10/01 11:46:49;;;;;;;0.88;0.88;;;14.50;99.90;;;;;;5029220;28;20213;-69
2022/10/01 11:49:20;;;;;;;0.77;0.77;;;14.50;99.90;;;;;;5038308;28;20226;-68
2022/10/01 11:51:51;;;;;;;0.90;0.90;;;14.30;99.90;;;;;;5029822;28;20702;-68
2022/10/01 11:54:23;;;;;;;1.30;0.90;;;14.70;99.90;;;;;;5027089;28;20197;-69
2022/10/01 12:00:08;;;;;;;0.82;0.80;;;14.50;99.90;;;;;;5038181;28;20261;-68
2022/10/01 12:02:55;;;;;;;1.00;0.70;;;14.50;99.90;;;;;;5031391;28;20632;-68
2022/10/01 12:05:24;;;;;;;0.90;0.80;;;14.40;99.90;;;;;;5040213;28;20237;-68
2022/10/01 12:08:03;;;;;;;1.08;0.98;;;14.20;99.90;;;;;;5033186;28;20193;-68
2022/10/01 12:10:47;;;;;;;1.10;1.00;;;14.40;99.90;;;;;;5041423;28;20240;-69
2022/10/01 12:13:31;;;;;;;1.17;1.08;;;14.60;99.90;;;;;;5026308;28;20174;-69
2022/10/01 12:16:05;;;;;;;1.02;0.80;;;14.40;99.90;;;;;;5041766;28;20189;-68
2022/10/01 12:18:50;;;;;;;0.85;0.80;;;14.10;99.90;;;;;;5041014;28;20280;-67
2022/10/01 12:21:42;;;;;;;0.90;0.90;;;14.50;99.90;;;;;;5013921;28;20187;-67
2022/10/01 12:24:13;;;;;;;1.40;1.30;;;14.70;99.90;;;;;;5035691;28;20553;-67
2022/10/01 12:27:23;;;;;;;1.10;0.77;;;14.60;99.90;;;;;;5035562;28;20198;-67
2022/10/01 12:30:08;;;;;;;1.20;1.10;;;15.10;99.90;;;;;;5039553;28;20201;-67
2022/10/01 12:32:52;;;;;;;0.85;0.77;;;15.00;99.90;;;;;;5034695;28;20699;-69
2022/10/01 12:35:55;;;;;;;1.30;1.00;;;15.00;99.90;;;;;;5036818;28;20878;-69
2022/10/01 12:38:30;;;;;;;1.20;1.10;;;15.30;99.90;;;;;;5037588;28;20201;-70
2022/10/01 12:41:26;;;;;;;1.33;0.80;;;15.50;99.90;;;;;;5036419;28;20272;-67
2022/10/01 12:44:04;;;;;;;0.88;0.88;;;15.70;99.90;;;;;;5039615;28;20190;-70
2022/10/01 12:46:45;;;;;;;0.80;0.77;;;15.60;99.90;;;;;;5037190;28;20216;-69
2022/10/01 12:49:36;;;;;;;0.90;0.70;;;15.40;99.90;;;;;;5034408;28;20216;-68
2022/10/01 12:52:23;;;;;;;0.80;0.70;;;15.20;99.90;;;;;;5020413;28;20205;-67
2022/10/01 12:54:58;;;;;;;1.10;1.00;;;15.30;99.90;;;;;;5030950;28;20214;-68
2022/10/01 12:57:43;;;;;;;0.80;0.70;;;15.20;99.90;;;;;;5029864;28;20206;-69
2022/10/01 13:00:24;;;;;;;1.15;0.90;;;15.40;99.90;;;;;;5027727;28;20248;-67
2022/10/01 13:03:11;;;;;;;2.65;0.82;;;15.20;99.90;;;;;;5040496;28;20182;-67
2022/10/01 13:05:54;;;;;;;1.02;0.88;;;15.10;99.90;;;;;;5026886;28;20281;-67
2022/10/01 13:08:42;;;;;;;0.90;0.73;;;15.20;99.90;;;;;;5035418;28;20210;-67
2022/10/01 13:11:19;;;;;;;3.40;0.85;;;15.50;99.90;;;;;;5031124;28;20247;-67
2022/10/01 13:13:49;;;;;;;1.40;0.80;;;15.40;99.90;;;;;;5033460;28;20213;-69
2022/10/01 13:16:35;;;;;;;1.38;0.88;;;15.40;99.90;;;;;;5026434;28;20210;-70
2022/10/01 13:19:07;;;;;;;0.90;0.90;;;15.50;99.90;;;;;;5026697;28;20182;-67